Axantha II — CQKN — position and weather

sailwx.info

Track history (hours):
 
Tides and Currents Weather Stations Pressure Air Temp Water Temp Dewpoint Dewpoint Depression Visibility Wind Speed Wind Dir Waves Ship Positions

Axantha II

Last reported at 2015-Jun-28 12:04 UTC. Time now 2015-Jul-07 00:19 UTC.
Position N 43°38' E 007°16'.
Warning: this ship's position is 8 days out of date.

Length 43 m; draft 2.8 m.

Type: Pleasure craft. MMSI: 255804580.

Date/timePositionNaut miles runAvg speedWind from/ knotsBaromVisibWave heightAir tempDewpointWater temp
2015-Jun-28 12:04N 43°38' E 007°16'4 7.2
2015-Jun-28 11:33N 43°39' E 007°11'7 7.5
2015-Jun-28 10:33N 43°32' E 007°09'8 7.3
2015-Jun-28 09:26N 43°30' E 006°58'3 2.9
2015-Jun-28 08:31N 43°27' E 006°57'1211.7
2015-Jun-28 07:32N 43°20' E 006°45'6 0.6
2015-Jun-27 22:12N 43°16' E 006°38'0 0.0
2015-Jun-27 21:09N 43°16' E 006°38'0 0.0
2015-Jun-27 20:32N 43°16' E 006°38'0 0.0
2015-Jun-27 19:33N 43°16' E 006°38'0 0.0
2015-Jun-27 18:33N 43°16' E 006°38'0 0.1
2015-Jun-27 17:31N 43°16' E 006°37'34 2.6
2015-Jun-27 04:30N 42°45' E 006°56'1212.8
2015-Jun-27 03:33N 42°38' E 007°09'1412.5
2015-Jun-27 02:26N 42°29' E 007°24'6713.0
2015-Jun-26 21:18N 41°47' E 008°34'  
2015-Jun-22 11:33N 42°51' E 010°22'3 2.2
2015-Jun-22 10:24N 42°48' E 010°21'0 0.0
2015-Jun-22 03:12N 42°48' E 010°21'0 0.0
2015-Jun-22 02:25N 42°48' E 010°21'0 0.0
2015-Jun-22 01:27N 42°48' E 010°21'0 0.0
2015-Jun-22 00:33N 42°48' E 010°21'32 7.5
2015-Jun-21 20:20N 43°15' E 009°58'1113.0
2015-Jun-21 19:29N 43°25' E 009°51'1213.0
2015-Jun-21 18:33N 43°36' E 009°44'1313.0
2015-Jun-21 17:33N 43°47' E 009°36'1312.6
2015-Jun-21 16:33N 43°59' E 009°28'1312.6
2015-Jun-21 15:33N 44°10' E 009°20'10 7.8
2015-Jun-21 14:17N 44°19' E 009°13'0 0.0
2015-Jun-21 13:33N 44°19' E 009°13'0 0.0
2015-Jun-21 12:30N 44°19' E 009°13'0 0.0
2015-Jun-21 11:31N 44°19' E 009°13'0 0.0
2015-Jun-21 10:27N 44°19' E 009°13'0 0.0
2015-Jun-21 09:31N 44°19' E 009°13'0 0.0
2015-Jun-21 08:05N 44°19' E 009°13'0 0.0
2015-Jun-21 06:24N 44°19' E 009°13'0 0.0
2015-Jun-21 05:18N 44°19' E 009°13'0 0.0
2015-Jun-21 03:17N 44°19' E 009°13'0 0.0
2015-Jun-21 00:18N 44°19' E 009°13'0 0.0
2015-Jun-20 23:32N 44°19' E 009°13'0 0.0
2015-Jun-20 21:21N 44°19' E 009°13'0 0.0
2015-Jun-20 20:33N 44°19' E 009°13'0 0.0
2015-Jun-20 19:30N 44°19' E 009°13'0 0.4
2015-Jun-20 18:23N 44°18' E 009°14'1012.2
2015-Jun-20 17:33N 44°13' E 009°01'1313.4
2015-Jun-20 16:33N 44°08' E 008°44'1313.3
2015-Jun-20 15:33N 44°02' E 008°28'1513.0
2015-Jun-20 14:25N 43°54' E 008°10'4912.6
2015-Jun-20 10:33N 43°32' E 007°10'  
Track history (hours):
 
Tides and Currents Weather Stations Pressure Air Temp Water Temp Dewpoint Dewpoint Depression Visibility Wind Speed Wind Dir Waves Ship Positions

Axantha II

Last reported at 2015-Jun-28 12:04 UTC. Time now 2015-Jul-07 00:19 UTC.
Position N 43°38' E 007°16'.
Warning: this ship's position is 8 days out of date.

Length 43 m; draft 2.8 m.

Type: Pleasure craft. MMSI: 255804580.

Date/timePositionNaut miles runAvg speedWind from/ knotsBaromVisibWave heightAir tempDewpointWater temp
2015-Jun-28 12:04N 43°38' E 007°16'4 7.2
2015-Jun-28 11:33N 43°39' E 007°11'7 7.5
2015-Jun-28 10:33N 43°32' E 007°09'8 7.3
2015-Jun-28 09:26N 43°30' E 006°58'3 2.9
2015-Jun-28 08:31N 43°27' E 006°57'1211.7
2015-Jun-28 07:32N 43°20' E 006°45'6 0.6
2015-Jun-27 22:12N 43°16' E 006°38'0 0.0
2015-Jun-27 21:09N 43°16' E 006°38'0 0.0
2015-Jun-27 20:32N 43°16' E 006°38'0 0.0
2015-Jun-27 19:33N 43°16' E 006°38'0 0.0
2015-Jun-27 18:33N 43°16' E 006°38'0 0.1
2015-Jun-27 17:31N 43°16' E 006°37'34 2.6
2015-Jun-27 04:30N 42°45' E 006°56'1212.8
2015-Jun-27 03:33N 42°38' E 007°09'1412.5
2015-Jun-27 02:26N 42°29' E 007°24'6713.0
2015-Jun-26 21:18N 41°47' E 008°34'  
2015-Jun-22 11:33N 42°51' E 010°22'3 2.2
2015-Jun-22 10:24N 42°48' E 010°21'0 0.0
2015-Jun-22 03:12N 42°48' E 010°21'0 0.0
2015-Jun-22 02:25N 42°48' E 010°21'0 0.0
2015-Jun-22 01:27N 42°48' E 010°21'0 0.0
2015-Jun-22 00:33N 42°48' E 010°21'32 7.5
2015-Jun-21 20:20N 43°15' E 009°58'1113.0
2015-Jun-21 19:29N 43°25' E 009°51'1213.0
2015-Jun-21 18:33N 43°36' E 009°44'1313.0
2015-Jun-21 17:33N 43°47' E 009°36'1312.6
2015-Jun-21 16:33N 43°59' E 009°28'1312.6
2015-Jun-21 15:33N 44°10' E 009°20'10 7.8
2015-Jun-21 14:17N 44°19' E 009°13'0 0.0
2015-Jun-21 13:33N 44°19' E 009°13'0 0.0
2015-Jun-21 12:30N 44°19' E 009°13'0 0.0
2015-Jun-21 11:31N 44°19' E 009°13'0 0.0
2015-Jun-21 10:27N 44°19' E 009°13'0 0.0
2015-Jun-21 09:31N 44°19' E 009°13'0 0.0
2015-Jun-21 08:05N 44°19' E 009°13'0 0.0
2015-Jun-21 06:24N 44°19' E 009°13'0 0.0
2015-Jun-21 05:18N 44°19' E 009°13'0 0.0
2015-Jun-21 03:17N 44°19' E 009°13'0 0.0
2015-Jun-21 00:18N 44°19' E 009°13'0 0.0
2015-Jun-20 23:32N 44°19' E 009°13'0 0.0
2015-Jun-20 21:21N 44°19' E 009°13'0 0.0
2015-Jun-20 20:33N 44°19' E 009°13'0 0.0
2015-Jun-20 19:30N 44°19' E 009°13'0 0.4
2015-Jun-20 18:23N 44°18' E 009°14'1012.2
2015-Jun-20 17:33N 44°13' E 009°01'1313.4
2015-Jun-20 16:33N 44°08' E 008°44'1313.3
2015-Jun-20 15:33N 44°02' E 008°28'1513.0
2015-Jun-20 14:25N 43°54' E 008°10'4912.6
2015-Jun-20 10:33N 43°32' E 007°10'  

Dump ship's entire track history